createdAt,value
2017-06-08T00:02:12.187Z,93.50
2017-06-08T00:04:39.925Z,94.00
2017-06-08T00:07:07.689Z,94.10
2017-06-08T00:09:35.425Z,94.30
2017-06-08T00:12:03.155Z,94.70
2017-06-08T00:14:30.921Z,95.30
2017-06-08T00:16:58.653Z,95.40
2017-06-08T00:19:26.383Z,95.60
2017-06-08T00:21:54.140Z,95.90
2017-06-08T00:24:21.869Z,96.10
2017-06-08T00:26:49.599Z,96.40
2017-06-08T00:29:17.359Z,96.50
2017-06-08T00:31:45.090Z,96.30
2017-06-08T00:34:12.821Z,97.00
2017-06-08T00:36:40.600Z,97.40
2017-06-08T00:39:08.320Z,97.30
2017-06-08T00:41:36.816Z,98.00
2017-06-08T00:44:04.574Z,98.00
2017-06-08T00:46:32.305Z,98.10
2017-06-08T00:49:00.038Z,98.30
2017-06-08T00:51:27.808Z,98.30
2017-06-08T00:53:55.540Z,98.40
2017-06-08T00:56:23.280Z,98.50
2017-06-08T00:58:51.041Z,98.60
2017-06-08T01:01:18.777Z,99.10
2017-06-08T01:03:46.513Z,99.40
2017-06-08T01:06:14.273Z,99.90
2017-06-08T01:08:42.000Z,99.90
2017-06-08T01:11:09.732Z,99.90
2017-06-08T01:13:37.512Z,99.90
2017-06-08T01:16:05.255Z,99.90
2017-06-08T01:18:33.033Z,99.90
2017-06-08T01:21:00.797Z,99.90
2017-06-08T01:23:28.533Z,99.90
2017-06-08T01:25:57.033Z,99.90
2017-06-08T01:28:24.800Z,99.90
2017-06-08T01:30:52.530Z,99.90
2017-06-08T01:33:20.259Z,99.90
2017-06-08T01:35:48.021Z,99.90
2017-06-08T01:38:15.757Z,99.90
2017-06-08T01:40:43.492Z,99.90
2017-06-08T01:43:11.268Z,99.90
2017-06-08T01:45:39.002Z,99.90
2017-06-08T01:48:07.538Z,99.90
2017-06-08T01:50:35.271Z,99.90
2017-06-08T01:53:03.010Z,99.90
2017-06-08T01:55:30.782Z,99.90
2017-06-08T01:57:58.512Z,99.90
2017-06-08T02:00:26.290Z,99.90
2017-06-08T02:02:54.015Z,99.90
2017-06-08T02:05:21.740Z,99.90
2017-06-08T02:07:49.492Z,99.90
2017-06-08T02:10:17.233Z,99.60
2017-06-08T02:12:45.003Z,99.40
2017-06-08T02:15:12.739Z,99.30
2017-06-08T02:17:40.471Z,98.90
2017-06-08T02:20:08.338Z,99.30
2017-06-08T02:22:36.111Z,99.80
2017-06-08T02:25:03.902Z,99.70
2017-06-08T02:27:31.637Z,99.90
2017-06-08T02:29:59.385Z,99.90
2017-06-08T02:32:27.165Z,99.90
2017-06-08T02:34:54.904Z,99.90
2017-06-08T02:37:22.706Z,99.50
2017-06-08T02:39:51.201Z,99.40
2017-06-08T02:42:18.937Z,99.30
2017-06-08T02:44:46.697Z,99.70
2017-06-08T02:47:14.430Z,99.60
2017-06-08T02:49:42.196Z,99.40
2017-06-08T02:52:09.933Z,99.60
2017-06-08T02:54:37.665Z,99.90
2017-06-08T02:57:05.424Z,99.90
2017-06-08T02:59:33.152Z,99.90
2017-06-08T03:02:00.922Z,99.90
2017-06-08T03:04:28.653Z,99.70
2017-06-08T03:06:56.382Z,99.80
2017-06-08T03:09:24.139Z,99.60
2017-06-08T03:11:51.870Z,99.10
2017-06-08T03:14:20.404Z,98.40
2017-06-08T03:16:48.132Z,98.30
2017-06-08T03:19:15.861Z,97.90
2017-06-08T03:21:43.627Z,97.10
2017-06-08T03:24:12.125Z,94.80
2017-06-08T03:26:39.909Z,94.80
2017-06-08T03:29:07.638Z,91.30
2017-06-08T03:31:36.126Z,79.70
2017-06-08T03:34:03.888Z,79.70
2017-06-08T03:36:31.620Z,71.70
2017-06-08T03:39:00.649Z,59.30
2017-06-08T03:41:28.381Z,59.40
2017-06-08T03:43:56.883Z,45.60
2017-06-08T03:46:24.654Z,45.50
2017-06-08T03:48:52.381Z,42.00
2017-06-08T03:51:20.916Z,39.80
2017-06-08T03:53:48.641Z,39.70
2017-06-08T03:56:16.384Z,39.40
2017-06-08T03:58:44.913Z,40.90
2017-06-08T04:01:12.636Z,40.80
2017-06-08T04:03:40.445Z,43.00
2017-06-08T04:06:08.175Z,44.70
2017-06-08T04:08:35.921Z,46.70
2017-06-08T04:11:03.685Z,49.00
2017-06-08T04:13:31.416Z,49.70
2017-06-08T04:15:59.190Z,49.30
2017-06-08T04:18:26.928Z,47.60
2017-06-08T04:20:54.665Z,45.90
2017-06-08T04:23:22.438Z,41.60
2017-06-08T04:25:50.165Z,36.10
2017-06-08T04:28:17.933Z,32.30
2017-06-08T04:30:45.666Z,29.40
2017-06-08T04:33:13.398Z,27.90
2017-06-08T04:35:41.165Z,27.20
2017-06-08T04:38:08.896Z,27.50
2017-06-08T04:40:36.857Z,25.70
2017-06-08T04:43:04.596Z,25.50
2017-06-08T04:45:32.349Z,26.10
2017-06-08T04:48:00.109Z,26.90
2017-06-08T04:50:27.844Z,27.70
2017-06-08T04:52:56.402Z,26.60
2017-06-08T04:55:24.133Z,26.10
2017-06-08T04:57:51.859Z,25.10
2017-06-08T05:00:19.640Z,25.20
2017-06-08T05:02:47.375Z,25.20
2017-06-08T05:05:15.146Z,26.10
2017-06-08T05:07:42.881Z,25.80
2017-06-08T05:10:10.609Z,23.50
2017-06-08T05:12:38.369Z,23.30
2017-06-08T05:15:06.118Z,22.60
2017-06-08T05:17:33.902Z,22.50
2017-06-08T05:20:01.637Z,22.20
2017-06-08T05:22:29.371Z,22.60
2017-06-08T05:24:57.133Z,21.80
2017-06-08T05:27:24.878Z,20.40
2017-06-08T05:29:53.412Z,20.30
2017-06-08T05:32:21.142Z,20.30
2017-06-08T05:34:48.869Z,19.90
2017-06-08T05:37:17.396Z,18.50
2017-06-08T05:39:45.130Z,18.10
2017-06-08T05:42:12.905Z,16.90
2017-06-08T05:44:40.672Z,16.40
2017-06-08T05:47:08.405Z,16.30
2017-06-08T05:49:36.176Z,16.10
2017-06-08T05:52:03.913Z,14.80
2017-06-08T05:54:32.452Z,14.60
2017-06-08T05:57:00.647Z,14.60
2017-06-08T05:59:28.376Z,14.40
2017-06-08T06:01:56.135Z,14.80
2017-06-08T06:04:23.869Z,14.10
2017-06-08T06:06:51.640Z,13.60
2017-06-08T06:09:19.378Z,13.00
2017-06-08T06:11:47.115Z,12.90
2017-06-08T06:14:15.136Z,12.80
2017-06-08T06:16:42.885Z,13.30
2017-06-08T06:19:10.662Z,13.40
2017-06-08T06:21:38.414Z,12.70
2017-06-08T06:24:06.150Z,13.50
2017-06-08T06:26:33.937Z,12.30
2017-06-08T06:29:01.671Z,11.40
2017-06-08T06:31:29.460Z,11.70
2017-06-08T06:33:57.217Z,10.80
2017-06-08T06:36:24.957Z,11.10
2017-06-08T06:38:52.724Z,11.30
2017-06-08T06:41:21.216Z,11.00
2017-06-08T06:43:48.990Z,11.00
2017-06-08T06:46:16.712Z,9.90
2017-06-08T06:48:44.441Z,10.70
2017-06-08T06:51:12.210Z,10.40
2017-06-08T06:53:39.944Z,10.20
2017-06-08T06:56:07.712Z,10.20
2017-06-08T06:58:35.443Z,10.70
2017-06-08T07:01:03.180Z,10.70
2017-06-08T07:03:31.735Z,11.50
2017-06-08T07:05:59.475Z,11.30
2017-06-08T07:08:27.260Z,12.20
2017-06-08T07:10:54.998Z,12.30
2017-06-08T07:13:22.744Z,11.90
2017-06-08T07:15:50.508Z,12.50
2017-06-08T07:18:18.249Z,11.60
2017-06-08T07:20:46.023Z,12.40
2017-06-08T07:23:13.761Z,12.20
2017-06-08T07:25:41.499Z,12.10
2017-06-08T07:28:09.261Z,10.80
2017-06-08T07:30:36.992Z,10.20
2017-06-08T07:33:04.754Z,9.50
2017-06-08T07:35:32.493Z,9.80
2017-06-08T07:38:00.214Z,9.50
2017-06-08T07:40:27.977Z,9.80
2017-06-08T07:42:56.473Z,9.60
2017-06-08T07:45:24.242Z,9.60
2017-06-08T07:47:51.964Z,8.80
2017-06-08T07:50:19.685Z,8.50
2017-06-08T07:52:47.445Z,7.40
2017-06-08T07:55:15.162Z,8.40
2017-06-08T07:57:43.690Z,7.80
2017-06-08T08:00:11.412Z,7.80
2017-06-08T08:03:01.744Z,7.80
2017-06-08T08:05:29.491Z,8.40
2017-06-08T08:07:57.218Z,8.10
2017-06-08T08:10:24.980Z,8.60
2017-06-08T08:12:52.709Z,8.80
2017-06-08T08:15:20.479Z,9.30
2017-06-08T08:17:48.971Z,8.60
2017-06-08T08:20:17.470Z,8.10
2017-06-08T08:22:45.232Z,8.10
2017-06-08T08:25:12.963Z,7.60
2017-06-08T08:27:40.742Z,8.80
2017-06-08T08:30:09.233Z,7.60
2017-06-08T08:32:36.960Z,7.60
2017-06-08T08:35:04.726Z,8.80
2017-06-08T08:37:33.217Z,7.70
2017-06-08T08:40:00.983Z,7.70
2017-06-08T08:42:29.477Z,8.50
2017-06-08T08:44:57.207Z,8.50
2017-06-08T08:47:25.770Z,10.10
2017-06-08T08:49:53.511Z,10.00
2017-06-08T08:52:21.281Z,10.00
2017-06-08T08:54:49.066Z,10.10
2017-06-08T08:57:17.566Z,9.50
2017-06-08T08:59:45.325Z,8.90
2017-06-08T09:02:13.857Z,7.30
2017-06-08T09:04:41.616Z,7.20
2017-06-08T09:07:09.337Z,7.70
2017-06-08T09:09:37.065Z,9.30
2017-06-08T09:12:04.816Z,9.40
2017-06-08T09:14:32.544Z,8.70
2017-06-08T09:17:00.328Z,8.70
2017-06-08T09:19:28.084Z,8.10
2017-06-08T09:21:55.810Z,8.70
2017-06-08T09:24:23.576Z,10.00
2017-06-08T09:26:51.305Z,9.60
2017-06-08T09:29:19.836Z,8.60
2017-06-08T09:31:47.559Z,8.50
2017-06-08T09:34:15.309Z,10.40
2017-06-08T09:36:43.077Z,12.00
2017-06-08T09:39:10.808Z,13.00
2017-06-08T09:41:38.576Z,16.00
2017-06-08T09:44:07.080Z,17.60
2017-06-08T09:46:34.821Z,17.60
2017-06-08T09:49:03.352Z,19.20
2017-06-08T09:51:31.123Z,19.10
2017-06-08T09:53:58.898Z,19.10
2017-06-08T09:56:26.631Z,19.60
2017-06-08T09:58:54.367Z,19.70
2017-06-08T10:01:22.125Z,22.10
2017-06-08T10:03:49.864Z,21.30
2017-06-08T10:06:18.405Z,21.90
2017-06-08T10:08:46.132Z,21.70
2017-06-08T10:11:13.863Z,22.70
2017-06-08T10:13:41.623Z,21.60
2017-06-08T10:16:09.353Z,22.00
2017-06-08T10:18:37.121Z,21.80
2017-06-08T10:21:04.854Z,21.90
2017-06-08T10:23:32.580Z,21.60
2017-06-08T10:26:01.121Z,20.80
2017-06-08T10:28:28.854Z,21.00
2017-06-08T10:30:56.629Z,21.50
2017-06-08T10:33:24.365Z,21.50
2017-06-08T10:35:52.116Z,22.80
2017-06-08T10:38:19.871Z,22.30
2017-06-08T10:40:48.365Z,22.60
2017-06-08T10:43:16.132Z,22.50
2017-06-08T10:45:43.877Z,22.00
2017-06-08T10:48:11.607Z,22.00
2017-06-08T10:50:39.369Z,22.80
2017-06-08T10:53:07.099Z,22.10
2017-06-08T10:55:34.870Z,22.60
2017-06-08T10:58:02.625Z,22.40
2017-06-08T11:00:30.359Z,20.90
2017-06-08T11:02:58.117Z,21.80
2017-06-08T11:05:25.844Z,22.00
2017-06-08T11:07:54.377Z,22.10
2017-06-08T11:10:22.101Z,22.10
2017-06-08T11:12:49.833Z,22.90
2017-06-08T11:15:17.601Z,22.80
2017-06-08T11:17:45.335Z,22.50
2017-06-08T11:20:13.105Z,22.20
2017-06-08T11:22:40.843Z,22.40
2017-06-08T11:25:08.572Z,23.10
2017-06-08T11:27:36.328Z,24.40
2017-06-08T11:30:04.070Z,22.50
2017-06-08T11:32:32.604Z,22.50
2017-06-08T11:35:00.336Z,22.50
2017-06-08T11:37:28.092Z,21.70
2017-06-08T11:39:55.861Z,21.90
2017-06-08T11:42:23.588Z,21.90
2017-06-08T11:44:51.357Z,22.30
2017-06-08T11:47:19.847Z,21.90
2017-06-08T11:49:48.344Z,21.90
2017-06-08T11:52:16.104Z,21.90
2017-06-08T11:54:43.835Z,22.20
2017-06-08T11:57:12.369Z,22.40
2017-06-08T11:59:40.096Z,22.40
2017-06-08T12:02:07.820Z,23.30
2017-06-08T12:04:35.591Z,22.60
2017-06-08T12:07:04.100Z,22.80
2017-06-08T12:09:31.880Z,22.80
2017-06-08T12:11:59.615Z,23.40
2017-06-08T12:14:27.347Z,22.50
2017-06-08T12:16:55.121Z,23.00
2017-06-08T12:19:23.615Z,23.90
2017-06-08T12:21:51.394Z,23.90
2017-06-08T12:24:19.156Z,22.40
2017-06-08T12:26:52.626Z,21.60
2017-06-08T12:29:21.121Z,23.00
2017-06-08T12:31:48.847Z,23.00
2017-06-08T12:34:16.608Z,22.50
2017-06-08T12:36:44.344Z,21.90
2017-06-08T12:39:12.112Z,22.10
2017-06-08T12:41:39.870Z,22.40
2017-06-08T12:44:07.601Z,22.30
2017-06-08T12:46:35.365Z,22.50
2017-06-08T12:49:03.096Z,23.50
2017-06-08T12:51:30.867Z,22.80
2017-06-08T12:53:58.593Z,24.10
2017-06-08T12:56:26.323Z,24.20
2017-06-08T12:58:54.096Z,24.00
2017-06-08T13:01:21.829Z,24.80
2017-06-08T13:03:49.602Z,26.20
2017-06-08T13:06:17.341Z,25.80
2017-06-08T13:08:45.075Z,25.90
2017-06-08T13:11:12.840Z,25.00
2017-06-08T13:13:41.340Z,24.10
2017-06-08T13:16:09.116Z,24.10
2017-06-08T13:18:36.840Z,24.50
2017-06-08T13:21:05.336Z,23.60
2017-06-08T13:23:33.098Z,23.60
2017-06-08T13:26:00.829Z,23.30
2017-06-08T13:28:29.365Z,22.70
2017-06-08T13:30:57.092Z,22.70
2017-06-08T13:33:24.829Z,22.60
2017-06-08T13:35:53.360Z,23.10
2017-06-08T13:38:21.103Z,23.10
2017-06-08T13:40:48.872Z,23.70
2017-06-08T13:43:16.609Z,24.00
2017-06-08T13:45:44.389Z,24.10
2017-06-08T13:48:12.156Z,24.40
2017-06-08T13:50:40.109Z,24.80
2017-06-08T13:53:07.872Z,24.50
2017-06-08T13:55:35.652Z,24.40
2017-06-08T13:58:03.380Z,25.20
2017-06-08T14:00:31.913Z,26.20
2017-06-08T14:02:59.657Z,26.20
2017-06-08T14:05:27.558Z,24.60
2017-06-08T14:07:55.293Z,23.80
2017-06-08T14:10:23.016Z,24.00
2017-06-08T14:12:50.779Z,24.40
2017-06-08T14:15:18.518Z,23.80
2017-06-08T14:17:47.052Z,23.50
2017-06-08T14:20:14.780Z,23.50
2017-06-08T14:22:42.510Z,25.00
2017-06-08T14:25:11.037Z,25.80
2017-06-08T14:27:38.773Z,25.60
2017-06-08T14:30:06.544Z,26.00
2017-06-08T14:32:34.272Z,25.20
2017-06-08T14:35:02.046Z,24.30
2017-06-08T14:37:30.576Z,24.40
2017-06-08T14:39:58.309Z,24.40
2017-06-08T14:42:26.084Z,25.00
2017-06-08T14:44:53.820Z,24.30
2017-06-08T14:47:21.548Z,23.60
2017-06-08T14:49:49.308Z,23.80
2017-06-08T14:52:17.045Z,24.40
2017-06-08T14:54:44.824Z,24.60
2017-06-08T14:57:12.552Z,24.80
2017-06-08T14:59:40.285Z,23.80
2017-06-08T15:02:08.061Z,23.60
2017-06-08T15:04:35.793Z,24.00
2017-06-08T15:07:04.340Z,22.70
2017-06-08T15:09:32.080Z,22.50
2017-06-08T15:12:00.656Z,22.40
2017-06-08T15:14:28.417Z,23.00
2017-06-08T15:16:56.144Z,23.10
2017-06-08T15:19:24.677Z,22.90
2017-06-08T15:21:52.410Z,23.00
2017-06-08T15:24:20.148Z,23.20
2017-06-08T15:26:47.908Z,22.70
2017-06-08T15:29:15.644Z,22.30
2017-06-08T15:31:43.420Z,21.70
2017-06-08T15:34:11.920Z,21.60
2017-06-08T15:36:39.649Z,21.50
2017-06-08T15:39:08.176Z,22.90
2017-06-08T15:41:35.907Z,22.90
2017-06-08T15:44:03.692Z,22.60
2017-06-08T15:46:31.420Z,22.10
2017-06-08T15:48:59.913Z,21.60
2017-06-08T15:51:27.692Z,21.60
2017-06-08T15:53:55.423Z,21.40
2017-06-08T15:56:23.964Z,21.10
2017-06-08T15:58:51.696Z,21.10
2017-06-08T16:01:19.425Z,21.00
2017-06-08T16:03:47.953Z,21.40
2017-06-08T16:06:15.685Z,21.30
2017-06-08T16:08:43.456Z,21.20
2017-06-08T16:11:11.186Z,21.60
2017-06-08T16:13:39.681Z,22.30
2017-06-08T16:16:07.444Z,22.20
2017-06-08T16:18:35.174Z,22.30
2017-06-08T16:21:03.709Z,22.60
2017-06-08T16:23:31.436Z,22.30
2017-06-08T16:25:59.164Z,22.90
2017-06-08T16:28:26.925Z,22.70
2017-06-08T16:30:54.665Z,22.60
2017-06-08T16:33:22.443Z,22.30
2017-06-08T16:35:50.173Z,23.00
2017-06-08T16:38:17.909Z,23.90
2017-06-08T16:40:45.668Z,24.20
2017-06-08T16:43:13.416Z,24.30
2017-06-08T16:45:42.117Z,25.30
2017-06-08T16:48:09.853Z,25.30
2017-06-08T16:50:38.351Z,25.20
2017-06-08T16:53:06.128Z,25.20
2017-06-08T16:55:33.910Z,25.60
2017-06-08T16:58:01.720Z,25.20
2017-06-08T17:00:30.224Z,25.30
2017-06-08T17:02:57.986Z,25.20
2017-06-08T17:05:25.753Z,25.50
2017-06-08T17:07:53.488Z,25.40
2017-06-08T17:10:21.983Z,25.80
2017-06-08T17:12:49.760Z,25.80
2017-06-08T17:15:17.496Z,26.00
2017-06-08T17:17:45.223Z,27.00
2017-06-08T17:20:12.988Z,27.70
2017-06-08T17:22:40.732Z,28.50
2017-06-08T17:25:08.463Z,29.80
2017-06-08T17:27:36.225Z,28.90
2017-06-08T17:30:03.960Z,29.90
2017-06-08T17:32:31.737Z,28.50
2017-06-08T17:34:59.466Z,28.40
2017-06-08T17:37:27.957Z,28.40
2017-06-08T17:39:55.716Z,28.40
2017-06-08T17:42:23.454Z,29.00
2017-06-08T17:44:51.229Z,30.00
2017-06-08T17:47:18.994Z,30.30
2017-06-08T17:49:47.489Z,31.90
2017-06-08T17:52:15.254Z,31.90
2017-06-08T17:54:43.010Z,32.20
2017-06-08T17:57:10.776Z,32.70
2017-06-08T17:59:38.513Z,32.80
2017-06-08T18:02:06.268Z,33.70
2017-06-08T18:04:34.793Z,34.20
2017-06-08T18:07:02.521Z,34.20
2017-06-08T18:09:31.059Z,35.40
2017-06-08T18:11:58.793Z,35.30
2017-06-08T18:14:26.521Z,35.80
2017-06-08T18:16:55.044Z,36.90
2017-06-08T18:19:22.767Z,36.80
2017-06-08T18:21:50.542Z,36.90
2017-06-08T18:24:18.275Z,37.40
2017-06-08T18:26:46.767Z,37.90
2017-06-08T18:29:14.533Z,37.80
2017-06-08T18:31:42.269Z,38.20
2017-06-08T18:34:10.809Z,37.90
2017-06-08T18:36:38.689Z,38.10
2017-06-08T18:39:06.621Z,38.40
2017-06-08T18:41:34.653Z,38.60
2017-06-08T18:44:02.446Z,39.20
2017-06-08T18:46:30.598Z,39.40
2017-06-08T18:48:59.093Z,40.50
2017-06-08T18:51:26.838Z,40.40
2017-06-08T18:53:54.632Z,40.60
2017-06-08T18:56:22.377Z,40.70
2017-06-08T18:58:50.238Z,41.00
2017-06-08T19:01:18.010Z,42.00
2017-06-08T19:03:45.748Z,43.00
2017-06-08T19:06:13.828Z,43.00
2017-06-08T19:08:41.645Z,43.30
2017-06-08T19:11:10.417Z,43.70
2017-06-08T19:13:38.173Z,43.70
2017-06-08T19:16:05.909Z,44.50
2017-06-08T19:18:33.668Z,44.70
2017-06-08T19:21:01.403Z,45.20
2017-06-08T19:23:29.181Z,46.00
2017-06-08T19:25:56.913Z,46.30
2017-06-08T19:28:25.420Z,46.90
2017-06-08T19:30:53.185Z,46.90
2017-06-08T19:33:20.950Z,46.90
2017-06-08T19:35:48.725Z,47.80
2017-06-08T19:38:16.469Z,47.20
2017-06-08T19:40:44.214Z,48.00
2017-06-08T19:43:11.981Z,48.30
2017-06-08T19:45:39.722Z,49.00
2017-06-08T19:48:08.337Z,50.70
2017-06-08T19:50:36.095Z,50.70
2017-06-08T19:53:03.832Z,51.20
2017-06-08T19:55:31.612Z,51.20
2017-06-08T19:57:59.486Z,50.70
2017-06-08T20:00:27.266Z,50.70
2017-06-08T20:02:55.008Z,50.90
2017-06-08T20:05:22.764Z,51.70
2017-06-08T20:07:50.529Z,52.60
2017-06-08T20:10:18.345Z,52.80
2017-06-08T20:12:46.910Z,54.00
2017-06-08T20:15:14.658Z,53.80
2017-06-08T20:17:42.389Z,53.40
2017-06-08T20:20:10.216Z,54.70
2017-06-08T20:22:38.719Z,54.80
2017-06-08T20:25:06.529Z,54.90
2017-06-08T20:27:34.488Z,55.70
2017-06-08T20:30:02.244Z,55.70
2017-06-08T20:32:30.016Z,55.00
2017-06-08T20:34:57.745Z,54.90
2017-06-08T20:37:25.629Z,56.30
2017-06-08T20:39:53.587Z,56.20
2017-06-08T20:42:21.332Z,56.50
2017-06-08T20:44:49.113Z,57.00
2017-06-08T20:47:16.849Z,56.90
2017-06-08T20:49:44.620Z,58.30
2017-06-08T20:52:12.506Z,58.30
2017-06-08T20:54:40.245Z,59.30
2017-06-08T20:57:08.015Z,60.00
2017-06-08T20:59:35.748Z,61.10
2017-06-08T21:02:03.517Z,61.80
2017-06-08T21:04:31.261Z,63.50
2017-06-08T21:06:59.803Z,64.60
2017-06-08T21:09:27.537Z,64.50
2017-06-08T21:11:55.273Z,65.80
2017-06-08T21:14:23.037Z,65.90
2017-06-08T21:16:50.772Z,65.40
2017-06-08T21:19:18.543Z,65.40
2017-06-08T21:21:47.047Z,63.80
2017-06-08T21:24:14.809Z,63.80
2017-06-08T21:26:42.545Z,65.80
2017-06-08T21:29:11.081Z,66.30
2017-06-08T21:31:38.811Z,66.30
2017-06-08T21:34:06.548Z,67.10
2017-06-08T21:36:35.077Z,69.60
2017-06-08T21:39:02.813Z,69.60
2017-06-08T21:41:30.580Z,71.20
2017-06-08T21:43:58.315Z,71.60
2017-06-08T21:46:26.045Z,73.00
2017-06-08T21:48:53.803Z,73.80
2017-06-08T21:51:21.534Z,74.50
2017-06-08T21:53:49.305Z,74.80
2017-06-08T21:56:17.038Z,74.90
2017-06-08T21:58:44.769Z,76.40
2017-06-08T22:01:12.531Z,75.80
2017-06-08T22:03:41.025Z,78.30
2017-06-08T22:06:08.794Z,78.30
2017-06-08T22:08:36.534Z,79.00
2017-06-08T22:11:05.030Z,80.70
2017-06-08T22:13:32.791Z,80.70
2017-06-08T22:16:00.520Z,80.60
2017-06-08T22:18:28.291Z,80.90
2017-06-08T22:20:56.788Z,80.20
2017-06-08T22:23:24.522Z,80.10
2017-06-08T22:25:52.281Z,80.60
2017-06-08T22:28:20.007Z,81.00
2017-06-08T22:30:47.777Z,80.80
2017-06-08T22:33:15.531Z,81.40
2017-06-08T22:35:43.261Z,82.50
2017-06-08T22:38:11.029Z,82.10
2017-06-08T22:40:38.782Z,82.80
2017-06-08T22:43:06.556Z,82.60
2017-06-08T22:45:34.292Z,82.90
2017-06-08T22:48:02.784Z,84.60
2017-06-08T22:50:30.547Z,84.60
2017-06-08T22:52:58.282Z,85.50
2017-06-08T22:55:26.831Z,84.40
2017-06-08T22:57:54.573Z,84.40
2017-06-08T23:00:22.302Z,85.30
2017-06-08T23:02:50.072Z,84.30
2017-06-08T23:05:17.813Z,85.40
2017-06-08T23:07:46.343Z,84.40
2017-06-08T23:10:14.072Z,84.40
2017-06-08T23:12:41.799Z,84.90
2017-06-08T23:15:09.570Z,85.30
2017-06-08T23:17:38.069Z,86.60
2017-06-08T23:20:05.848Z,86.50
2017-06-08T23:22:33.585Z,85.70
2017-06-08T23:25:01.316Z,84.80
2017-06-08T23:27:29.081Z,84.70
2017-06-08T23:29:56.812Z,84.10
2017-06-08T23:32:24.587Z,84.20
2017-06-08T23:34:52.316Z,85.30
2017-06-08T23:37:20.067Z,84.20
2017-06-08T23:39:47.839Z,84.00
2017-06-08T23:42:15.573Z,84.00
2017-06-08T23:44:43.350Z,83.70
2017-06-08T23:47:11.084Z,83.40
2017-06-08T23:49:39.576Z,82.20
2017-06-08T23:52:07.346Z,82.20
2017-06-08T23:54:35.073Z,82.50
2017-06-08T23:57:03.617Z,83.60
2017-06-08T23:59:31.345Z,83.60
